sensor_id;sensor_type;location;lat;lon;timestamp;P1;durP1;ratioP1;P2;durP2;ratioP2
37495;SDS011;23346;52.088;4.746;2022-07-18T00:00:45;19.95;;;9.63;;
37495;SDS011;23346;52.088;4.746;2022-07-18T00:03:11;16.83;;;9.00;;
37495;SDS011;23346;52.088;4.746;2022-07-18T00:05:37;18.30;;;8.30;;
37495;SDS011;23346;52.088;4.746;2022-07-18T00:08:03;16.17;;;8.50;;
37495;SDS011;23346;52.088;4.746;2022-07-18T00:10:29;14.80;;;8.48;;
37495;SDS011;23346;52.088;4.746;2022-07-18T00:12:55;14.70;;;8.35;;
37495;SDS011;23346;52.088;4.746;2022-07-18T00:15:21;14.48;;;8.68;;
37495;SDS011;23346;52.088;4.746;2022-07-18T00:17:47;15.05;;;8.75;;
37495;SDS011;23346;52.088;4.746;2022-07-18T00:20:13;15.10;;;8.70;;
37495;SDS011;23346;52.088;4.746;2022-07-18T00:22:39;11.32;;;7.43;;
37495;SDS011;23346;52.088;4.746;2022-07-18T00:25:06;15.27;;;8.13;;
37495;SDS011;23346;52.088;4.746;2022-07-18T00:27:32;16.30;;;7.00;;
37495;SDS011;23346;52.088;4.746;2022-07-18T00:29:58;14.38;;;8.07;;
37495;SDS011;23346;52.088;4.746;2022-07-18T00:32:24;17.23;;;8.45;;
37495;SDS011;23346;52.088;4.746;2022-07-18T00:34:50;20.98;;;8.23;;
37495;SDS011;23346;52.088;4.746;2022-07-18T00:37:16;15.55;;;7.88;;
37495;SDS011;23346;52.088;4.746;2022-07-18T00:39:42;18.50;;;7.78;;
37495;SDS011;23346;52.088;4.746;2022-07-18T00:42:08;14.82;;;8.32;;
37495;SDS011;23346;52.088;4.746;2022-07-18T00:44:34;15.77;;;7.78;;
37495;SDS011;23346;52.088;4.746;2022-07-18T00:47:01;18.13;;;8.77;;
37495;SDS011;23346;52.088;4.746;2022-07-18T00:49:27;14.60;;;8.53;;
37495;SDS011;23346;52.088;4.746;2022-07-18T00:51:53;14.90;;;8.20;;
37495;SDS011;23346;52.088;4.746;2022-07-18T00:54:19;15.10;;;9.85;;
37495;SDS011;23346;52.088;4.746;2022-07-18T00:56:46;14.67;;;8.10;;
37495;SDS011;23346;52.088;4.746;2022-07-18T00:59:13;16.83;;;8.43;;
37495;SDS011;23346;52.088;4.746;2022-07-18T01:01:39;14.02;;;8.25;;
37495;SDS011;23346;52.088;4.746;2022-07-18T01:04:16;19.17;;;7.80;;
37495;SDS011;23346;52.088;4.746;2022-07-18T01:06:42;15.60;;;7.67;;
37495;SDS011;23346;52.088;4.746;2022-07-18T01:09:09;12.70;;;7.57;;
37495;SDS011;23346;52.088;4.746;2022-07-18T01:11:35;14.37;;;7.50;;
37495;SDS011;23346;52.088;4.746;2022-07-18T01:14:01;12.07;;;7.53;;
37495;SDS011;23346;52.088;4.746;2022-07-18T01:16:28;13.70;;;7.40;;
37495;SDS011;23346;52.088;4.746;2022-07-18T01:18:54;10.70;;;7.10;;
37495;SDS011;23346;52.088;4.746;2022-07-18T01:21:20;14.93;;;8.73;;
37495;SDS011;23346;52.088;4.746;2022-07-18T01:23:46;13.13;;;7.47;;
37495;SDS011;23346;52.088;4.746;2022-07-18T01:26:13;13.93;;;7.37;;
37495;SDS011;23346;52.088;4.746;2022-07-18T01:28:39;14.60;;;8.33;;
37495;SDS011;23346;52.088;4.746;2022-07-18T01:31:05;13.30;;;7.20;;
37495;SDS011;23346;52.088;4.746;2022-07-18T01:33:32;12.77;;;7.40;;
37495;SDS011;23346;52.088;4.746;2022-07-18T01:35:59;13.33;;;8.03;;
37495;SDS011;23346;52.088;4.746;2022-07-18T01:38:26;13.77;;;7.77;;
37495;SDS011;23346;52.088;4.746;2022-07-18T01:40:52;16.70;;;7.83;;
37495;SDS011;23346;52.088;4.746;2022-07-18T01:43:18;15.37;;;8.50;;
37495;SDS011;23346;52.088;4.746;2022-07-18T01:45:44;12.20;;;7.00;;
37495;SDS011;23346;52.088;4.746;2022-07-18T01:48:10;13.20;;;7.60;;
37495;SDS011;23346;52.088;4.746;2022-07-18T01:50:36;15.83;;;7.93;;
37495;SDS011;23346;52.088;4.746;2022-07-18T01:53:02;15.23;;;7.80;;
37495;SDS011;23346;52.088;4.746;2022-07-18T01:55:28;13.30;;;8.33;;
37495;SDS011;23346;52.088;4.746;2022-07-18T01:57:54;18.17;;;8.20;;
37495;SDS011;23346;52.088;4.746;2022-07-18T02:00:20;14.30;;;8.53;;
37495;SDS011;23346;52.088;4.746;2022-07-18T02:02:46;15.20;;;8.20;;
37495;SDS011;23346;52.088;4.746;2022-07-18T02:05:12;15.20;;;8.57;;
37495;SDS011;23346;52.088;4.746;2022-07-18T02:07:39;12.20;;;7.63;;
37495;SDS011;23346;52.088;4.746;2022-07-18T02:10:09;14.93;;;7.70;;
37495;SDS011;23346;52.088;4.746;2022-07-18T02:12:36;15.47;;;8.53;;
37495;SDS011;23346;52.088;4.746;2022-07-18T02:15:02;16.77;;;8.57;;
37495;SDS011;23346;52.088;4.746;2022-07-18T02:17:28;14.73;;;7.60;;
37495;SDS011;23346;52.088;4.746;2022-07-18T02:19:54;12.93;;;7.63;;
37495;SDS011;23346;52.088;4.746;2022-07-18T02:22:20;15.03;;;8.20;;
37495;SDS011;23346;52.088;4.746;2022-07-18T02:24:47;13.70;;;7.83;;
37495;SDS011;23346;52.088;4.746;2022-07-18T02:27:12;18.07;;;8.10;;
37495;SDS011;23346;52.088;4.746;2022-07-18T02:29:39;14.33;;;7.50;;
37495;SDS011;23346;52.088;4.746;2022-07-18T02:32:05;15.30;;;7.73;;
37495;SDS011;23346;52.088;4.746;2022-07-18T02:34:31;15.13;;;8.50;;
37495;SDS011;23346;52.088;4.746;2022-07-18T02:36:57;13.43;;;7.53;;
37495;SDS011;23346;52.088;4.746;2022-07-18T02:39:23;14.17;;;7.73;;
37495;SDS011;23346;52.088;4.746;2022-07-18T02:41:49;17.50;;;7.77;;
37495;SDS011;23346;52.088;4.746;2022-07-18T02:44:15;16.13;;;7.37;;
37495;SDS011;23346;52.088;4.746;2022-07-18T02:46:41;15.50;;;8.17;;
37495;SDS011;23346;52.088;4.746;2022-07-18T02:49:07;15.50;;;8.10;;
37495;SDS011;23346;52.088;4.746;2022-07-18T02:51:34;20.53;;;8.03;;
37495;SDS011;23346;52.088;4.746;2022-07-18T02:54:00;13.40;;;7.77;;
37495;SDS011;23346;52.088;4.746;2022-07-18T02:56:26;11.40;;;7.47;;
37495;SDS011;23346;52.088;4.746;2022-07-18T02:58:52;14.10;;;7.00;;
37495;SDS011;23346;52.088;4.746;2022-07-18T03:01:18;16.03;;;7.83;;
37495;SDS011;23346;52.088;4.746;2022-07-18T03:03:44;15.83;;;8.30;;
37495;SDS011;23346;52.088;4.746;2022-07-18T03:06:10;13.97;;;7.50;;
37495;SDS011;23346;52.088;4.746;2022-07-18T03:08:36;15.10;;;7.87;;
37495;SDS011;23346;52.088;4.746;2022-07-18T03:11:02;15.03;;;8.70;;
37495;SDS011;23346;52.088;4.746;2022-07-18T03:13:28;14.20;;;8.00;;
37495;SDS011;23346;52.088;4.746;2022-07-18T03:15:54;15.50;;;8.50;;
37495;SDS011;23346;52.088;4.746;2022-07-18T03:18:20;13.50;;;8.30;;
37495;SDS011;23346;52.088;4.746;2022-07-18T03:20:47;16.37;;;8.10;;
37495;SDS011;23346;52.088;4.746;2022-07-18T03:23:13;16.53;;;9.10;;
37495;SDS011;23346;52.088;4.746;2022-07-18T03:25:39;16.90;;;8.40;;
37495;SDS011;23346;52.088;4.746;2022-07-18T03:28:05;13.47;;;7.60;;
37495;SDS011;23346;52.088;4.746;2022-07-18T03:30:31;17.10;;;8.73;;
37495;SDS011;23346;52.088;4.746;2022-07-18T03:32:57;15.47;;;8.10;;
37495;SDS011;23346;52.088;4.746;2022-07-18T03:35:23;12.97;;;8.17;;
37495;SDS011;23346;52.088;4.746;2022-07-18T03:37:49;17.60;;;8.80;;
37495;SDS011;23346;52.088;4.746;2022-07-18T03:40:15;21.67;;;9.80;;
37495;SDS011;23346;52.088;4.746;2022-07-18T03:42:41;16.65;;;8.73;;
37495;SDS011;23346;52.088;4.746;2022-07-18T03:45:07;14.10;;;8.20;;
37495;SDS011;23346;52.088;4.746;2022-07-18T03:47:33;14.90;;;9.73;;
37495;SDS011;23346;52.088;4.746;2022-07-18T03:50:00;17.80;;;9.77;;
37495;SDS011;23346;52.088;4.746;2022-07-18T03:52:26;16.20;;;9.60;;
37495;SDS011;23346;52.088;4.746;2022-07-18T03:54:52;15.67;;;9.57;;
37495;SDS011;23346;52.088;4.746;2022-07-18T03:57:18;17.07;;;9.70;;
37495;SDS011;23346;52.088;4.746;2022-07-18T03:59:44;20.20;;;10.33;;
37495;SDS011;23346;52.088;4.746;2022-07-18T04:02:10;18.00;;;9.87;;
37495;SDS011;23346;52.088;4.746;2022-07-18T04:04:36;20.60;;;10.23;;
37495;SDS011;23346;52.088;4.746;2022-07-18T04:07:02;18.73;;;11.00;;
37495;SDS011;23346;52.088;4.746;2022-07-18T04:09:28;16.57;;;9.70;;
37495;SDS011;23346;52.088;4.746;2022-07-18T04:11:54;18.73;;;10.57;;
37495;SDS011;23346;52.088;4.746;2022-07-18T04:14:20;19.67;;;10.57;;
37495;SDS011;23346;52.088;4.746;2022-07-18T04:16:49;21.40;;;9.97;;
37495;SDS011;23346;52.088;4.746;2022-07-18T04:19:15;17.90;;;10.03;;
37495;SDS011;23346;52.088;4.746;2022-07-18T04:21:42;20.07;;;10.63;;
37495;SDS011;23346;52.088;4.746;2022-07-18T04:24:08;17.47;;;9.77;;
37495;SDS011;23346;52.088;4.746;2022-07-18T04:26:34;18.57;;;9.70;;
37495;SDS011;23346;52.088;4.746;2022-07-18T04:29:00;18.33;;;9.50;;
37495;SDS011;23346;52.088;4.746;2022-07-18T04:31:26;21.50;;;9.93;;
37495;SDS011;23346;52.088;4.746;2022-07-18T04:33:52;15.63;;;8.93;;
37495;SDS011;23346;52.088;4.746;2022-07-18T04:36:18;19.10;;;9.70;;
37495;SDS011;23346;52.088;4.746;2022-07-18T04:38:44;17.40;;;9.60;;
37495;SDS011;23346;52.088;4.746;2022-07-18T04:41:10;17.53;;;9.17;;
37495;SDS011;23346;52.088;4.746;2022-07-18T04:43:36;16.23;;;8.50;;
37495;SDS011;23346;52.088;4.746;2022-07-18T04:46:02;16.60;;;9.20;;
37495;SDS011;23346;52.088;4.746;2022-07-18T04:48:30;14.67;;;8.70;;
37495;SDS011;23346;52.088;4.746;2022-07-18T04:50:56;17.97;;;8.50;;
37495;SDS011;23346;52.088;4.746;2022-07-18T04:53:22;15.07;;;8.77;;
37495;SDS011;23346;52.088;4.746;2022-07-18T04:55:48;20.20;;;9.43;;
37495;SDS011;23346;52.088;4.746;2022-07-18T04:58:14;13.57;;;7.70;;
37495;SDS011;23346;52.088;4.746;2022-07-18T05:00:40;13.13;;;7.60;;
37495;SDS011;23346;52.088;4.746;2022-07-18T05:03:06;14.68;;;7.70;;
37495;SDS011;23346;52.088;4.746;2022-07-18T05:05:32;15.10;;;8.60;;
37495;SDS011;23346;52.088;4.746;2022-07-18T05:07:58;16.47;;;8.40;;
37495;SDS011;23346;52.088;4.746;2022-07-18T05:10:24;15.77;;;7.87;;
37495;SDS011;23346;52.088;4.746;2022-07-18T05:12:51;14.70;;;7.87;;
37495;SDS011;23346;52.088;4.746;2022-07-18T05:15:18;19.83;;;8.60;;
37495;SDS011;23346;52.088;4.746;2022-07-18T05:17:44;13.77;;;8.40;;
37495;SDS011;23346;52.088;4.746;2022-07-18T05:20:11;16.58;;;7.88;;
37495;SDS011;23346;52.088;4.746;2022-07-18T05:22:38;13.63;;;8.60;;
37495;SDS011;23346;52.088;4.746;2022-07-18T05:25:04;16.20;;;8.60;;
37495;SDS011;23346;52.088;4.746;2022-07-18T05:27:31;16.55;;;8.48;;
37495;SDS011;23346;52.088;4.746;2022-07-18T05:29:57;14.70;;;7.45;;
37495;SDS011;23346;52.088;4.746;2022-07-18T05:32:26;14.32;;;7.50;;
37495;SDS011;23346;52.088;4.746;2022-07-18T05:34:52;19.55;;;8.52;;
37495;SDS011;23346;52.088;4.746;2022-07-18T05:37:19;17.35;;;7.65;;
37495;SDS011;23346;52.088;4.746;2022-07-18T05:39:45;14.90;;;8.15;;
37495;SDS011;23346;52.088;4.746;2022-07-18T05:42:11;14.38;;;7.93;;
37495;SDS011;23346;52.088;4.746;2022-07-18T05:44:37;19.35;;;8.35;;
37495;SDS011;23346;52.088;4.746;2022-07-18T05:47:03;20.88;;;8.77;;
37495;SDS011;23346;52.088;4.746;2022-07-18T05:49:29;16.70;;;7.63;;
37495;SDS011;23346;52.088;4.746;2022-07-18T05:51:55;14.00;;;7.57;;
37495;SDS011;23346;52.088;4.746;2022-07-18T05:54:21;15.35;;;7.80;;
37495;SDS011;23346;52.088;4.746;2022-07-18T05:56:48;13.30;;;8.15;;
37495;SDS011;23346;52.088;4.746;2022-07-18T05:59:14;15.32;;;8.05;;
37495;SDS011;23346;52.088;4.746;2022-07-18T06:01:40;11.20;;;7.57;;
37495;SDS011;23346;52.088;4.746;2022-07-18T06:04:06;13.88;;;7.78;;
37495;SDS011;23346;52.088;4.746;2022-07-18T06:06:32;12.75;;;7.90;;
37495;SDS011;23346;52.088;4.746;2022-07-18T06:08:58;13.02;;;7.43;;
37495;SDS011;23346;52.088;4.746;2022-07-18T06:11:24;18.60;;;8.15;;
37495;SDS011;23346;52.088;4.746;2022-07-18T06:13:50;18.50;;;7.20;;
37495;SDS011;23346;52.088;4.746;2022-07-18T06:16:16;16.33;;;7.18;;
37495;SDS011;23346;52.088;4.746;2022-07-18T06:18:42;18.02;;;7.70;;
37495;SDS011;23346;52.088;4.746;2022-07-18T06:21:08;12.43;;;7.18;;
37495;SDS011;23346;52.088;4.746;2022-07-18T06:23:34;10.95;;;6.90;;
37495;SDS011;23346;52.088;4.746;2022-07-18T06:26:01;15.70;;;6.90;;
37495;SDS011;23346;52.088;4.746;2022-07-18T06:28:27;12.35;;;7.50;;
37495;SDS011;23346;52.088;4.746;2022-07-18T06:30:56;14.18;;;7.38;;
37495;SDS011;23346;52.088;4.746;2022-07-18T06:33:22;11.30;;;6.22;;
37495;SDS011;23346;52.088;4.746;2022-07-18T06:35:48;14.43;;;7.50;;
37495;SDS011;23346;52.088;4.746;2022-07-18T06:38:15;13.85;;;6.50;;
37495;SDS011;23346;52.088;4.746;2022-07-18T06:40:41;15.60;;;6.85;;
37495;SDS011;23346;52.088;4.746;2022-07-18T06:43:07;10.60;;;6.38;;
37495;SDS011;23346;52.088;4.746;2022-07-18T06:45:34;11.80;;;5.57;;
37495;SDS011;23346;52.088;4.746;2022-07-18T06:48:00;11.68;;;5.78;;
37495;SDS011;23346;52.088;4.746;2022-07-18T06:50:26;12.57;;;5.70;;
37495;SDS011;23346;52.088;4.746;2022-07-18T06:52:52;10.18;;;5.75;;
37495;SDS011;23346;52.088;4.746;2022-07-18T06:55:18;9.45;;;5.43;;
37495;SDS011;23346;52.088;4.746;2022-07-18T06:57:45;9.75;;;4.60;;
37495;SDS011;23346;52.088;4.746;2022-07-18T07:00:12;9.57;;;4.93;;
37495;SDS011;23346;52.088;4.746;2022-07-18T07:02:42;10.80;;;5.40;;
37495;SDS011;23346;52.088;4.746;2022-07-18T07:05:08;11.88;;;4.72;;
37495;SDS011;23346;52.088;4.746;2022-07-18T07:07:35;14.45;;;5.63;;
37495;SDS011;23346;52.088;4.746;2022-07-18T07:10:01;11.52;;;4.78;;
37495;SDS011;23346;52.088;4.746;2022-07-18T07:12:27;12.57;;;5.88;;
37495;SDS011;23346;52.088;4.746;2022-07-18T07:14:53;9.27;;;4.82;;
37495;SDS011;23346;52.088;4.746;2022-07-18T07:17:19;10.10;;;4.45;;
37495;SDS011;23346;52.088;4.746;2022-07-18T07:19:45;8.57;;;4.10;;
37495;SDS011;23346;52.088;4.746;2022-07-18T07:22:11;10.10;;;4.82;;
37495;SDS011;23346;52.088;4.746;2022-07-18T07:24:37;14.27;;;4.80;;
37495;SDS011;23346;52.088;4.746;2022-07-18T07:27:05;9.25;;;3.85;;
37495;SDS011;23346;52.088;4.746;2022-07-18T07:29:31;11.82;;;4.50;;
37495;SDS011;23346;52.088;4.746;2022-07-18T07:31:57;8.15;;;3.83;;
37495;SDS011;23346;52.088;4.746;2022-07-18T07:34:24;10.32;;;3.90;;
37495;SDS011;23346;52.088;4.746;2022-07-18T07:36:50;7.00;;;3.42;;
37495;SDS011;23346;52.088;4.746;2022-07-18T07:39:16;8.73;;;3.97;;
37495;SDS011;23346;52.088;4.746;2022-07-18T07:41:42;11.80;;;3.95;;
37495;SDS011;23346;52.088;4.746;2022-07-18T07:44:08;10.27;;;3.78;;
37495;SDS011;23346;52.088;4.746;2022-07-18T07:46:34;12.70;;;3.50;;
37495;SDS011;23346;52.088;4.746;2022-07-18T07:49:00;7.10;;;3.33;;
37495;SDS011;23346;52.088;4.746;2022-07-18T07:51:26;9.95;;;3.22;;
37495;SDS011;23346;52.088;4.746;2022-07-18T07:53:52;10.27;;;3.60;;
37495;SDS011;23346;52.088;4.746;2022-07-18T07:56:18;10.88;;;3.78;;
37495;SDS011;23346;52.088;4.746;2022-07-18T07:58:44;6.03;;;2.95;;
37495;SDS011;23346;52.088;4.746;2022-07-18T08:01:11;9.00;;;3.95;;
37495;SDS011;23346;52.088;4.746;2022-07-18T08:03:38;6.15;;;3.15;;
37495;SDS011;23346;52.088;4.746;2022-07-18T08:06:04;10.95;;;3.63;;
37495;SDS011;23346;52.088;4.746;2022-07-18T08:08:30;5.43;;;2.70;;
37495;SDS011;23346;52.088;4.746;2022-07-18T08:10:56;7.05;;;3.05;;
37495;SDS011;23346;52.088;4.746;2022-07-18T08:13:22;7.53;;;2.97;;
37495;SDS011;23346;52.088;4.746;2022-07-18T08:15:48;6.25;;;2.85;;
37495;SDS011;23346;52.088;4.746;2022-07-18T08:18:14;7.78;;;2.58;;
37495;SDS011;23346;52.088;4.746;2022-07-18T08:20:40;6.32;;;3.13;;
37495;SDS011;23346;52.088;4.746;2022-07-18T08:23:07;11.23;;;2.80;;
37495;SDS011;23346;52.088;4.746;2022-07-18T08:25:35;9.07;;;2.78;;
37495;SDS011;23346;52.088;4.746;2022-07-18T08:28:01;8.50;;;2.80;;
37495;SDS011;23346;52.088;4.746;2022-07-18T08:30:28;9.68;;;2.90;;
37495;SDS011;23346;52.088;4.746;2022-07-18T08:32:54;9.70;;;2.67;;
37495;SDS011;23346;52.088;4.746;2022-07-18T08:35:21;10.23;;;3.35;;
37495;SDS011;23346;52.088;4.746;2022-07-18T08:37:47;7.10;;;2.33;;
37495;SDS011;23346;52.088;4.746;2022-07-18T08:40:13;7.88;;;2.97;;
37495;SDS011;23346;52.088;4.746;2022-07-18T08:42:39;7.93;;;2.65;;
37495;SDS011;23346;52.088;4.746;2022-07-18T08:45:05;3.35;;;2.13;;
37495;SDS011;23346;52.088;4.746;2022-07-18T08:47:32;8.65;;;2.65;;
37495;SDS011;23346;52.088;4.746;2022-07-18T08:49:58;7.00;;;2.47;;
37495;SDS011;23346;52.088;4.746;2022-07-18T08:52:25;7.90;;;2.75;;
37495;SDS011;23346;52.088;4.746;2022-07-18T08:54:51;5.88;;;2.28;;
37495;SDS011;23346;52.088;4.746;2022-07-18T08:57:18;9.13;;;1.98;;
37495;SDS011;23346;52.088;4.746;2022-07-18T08:59:44;5.07;;;2.58;;
37495;SDS011;23346;52.088;4.746;2022-07-18T09:02:10;7.20;;;2.10;;
37495;SDS011;23346;52.088;4.746;2022-07-18T09:04:40;8.27;;;2.58;;
37495;SDS011;23346;52.088;4.746;2022-07-18T09:07:07;8.45;;;3.08;;
37495;SDS011;23346;52.088;4.746;2022-07-18T09:09:36;7.15;;;2.35;;
37495;SDS011;23346;52.088;4.746;2022-07-18T09:12:04;7.45;;;2.33;;
37495;SDS011;23346;52.088;4.746;2022-07-18T09:14:37;6.38;;;1.88;;
37495;SDS011;23346;52.088;4.746;2022-07-18T09:17:05;8.65;;;2.45;;
37495;SDS011;23346;52.088;4.746;2022-07-18T09:19:32;3.42;;;2.15;;
37495;SDS011;23346;52.088;4.746;2022-07-18T09:22:11;6.93;;;2.15;;
37495;SDS011;23346;52.088;4.746;2022-07-18T09:24:48;5.85;;;2.60;;
37495;SDS011;23346;52.088;4.746;2022-07-18T09:27:22;5.78;;;2.47;;
37495;SDS011;23346;52.088;4.746;2022-07-18T09:29:50;5.47;;;1.95;;
37495;SDS011;23346;52.088;4.746;2022-07-18T09:32:22;5.00;;;2.20;;
37495;SDS011;23346;52.088;4.746;2022-07-18T09:34:48;3.95;;;1.77;;
37495;SDS011;23346;52.088;4.746;2022-07-18T09:37:14;5.95;;;1.90;;
37495;SDS011;23346;52.088;4.746;2022-07-18T09:39:40;5.20;;;2.38;;
37495;SDS011;23346;52.088;4.746;2022-07-18T09:42:13;5.95;;;2.22;;
37495;SDS011;23346;52.088;4.746;2022-07-18T09:44:39;7.10;;;2.20;;
37495;SDS011;23346;52.088;4.746;2022-07-18T09:47:05;7.25;;;1.83;;
37495;SDS011;23346;52.088;4.746;2022-07-18T09:49:32;5.35;;;1.92;;
37495;SDS011;23346;52.088;4.746;2022-07-18T09:52:06;6.72;;;1.98;;
37495;SDS011;23346;52.088;4.746;2022-07-18T09:54:39;6.25;;;2.15;;
37495;SDS011;23346;52.088;4.746;2022-07-18T09:57:06;9.80;;;2.20;;
37495;SDS011;23346;52.088;4.746;2022-07-18T09:59:32;6.65;;;2.70;;
37495;SDS011;23346;52.088;4.746;2022-07-18T10:02:00;7.68;;;2.35;;
37495;SDS011;23346;52.088;4.746;2022-07-18T10:04:26;19.55;;;3.05;;
37495;SDS011;23346;52.088;4.746;2022-07-18T10:06:52;8.77;;;2.25;;
37495;SDS011;23346;52.088;4.746;2022-07-18T10:09:18;4.38;;;1.70;;
37495;SDS011;23346;52.088;4.746;2022-07-18T10:11:44;4.32;;;2.13;;
37495;SDS011;23346;52.088;4.746;2022-07-18T10:14:10;10.13;;;2.20;;
37495;SDS011;23346;52.088;4.746;2022-07-18T10:16:37;5.78;;;2.20;;
37495;SDS011;23346;52.088;4.746;2022-07-18T10:19:03;5.93;;;2.08;;
37495;SDS011;23346;52.088;4.746;2022-07-18T10:21:29;13.32;;;1.85;;
37495;SDS011;23346;52.088;4.746;2022-07-18T10:23:56;6.22;;;2.38;;
37495;SDS011;23346;52.088;4.746;2022-07-18T10:26:25;7.97;;;2.00;;
37495;SDS011;23346;52.088;4.746;2022-07-18T10:31:22;7.53;;;1.98;;
37495;SDS011;23346;52.088;4.746;2022-07-18T10:33:48;6.30;;;2.00;;
37495;SDS011;23346;52.088;4.746;2022-07-18T10:36:15;7.32;;;2.25;;
37495;SDS011;23346;52.088;4.746;2022-07-18T10:41:26;5.38;;;1.80;;
37495;SDS011;23346;52.088;4.746;2022-07-18T10:43:52;10.25;;;2.25;;
37495;SDS011;23346;52.088;4.746;2022-07-18T10:46:18;4.50;;;2.17;;
37495;SDS011;23346;52.088;4.746;2022-07-18T10:48:47;5.07;;;2.10;;
37495;SDS011;23346;52.088;4.746;2022-07-18T10:51:14;8.50;;;2.10;;
37495;SDS011;23346;52.088;4.746;2022-07-18T10:59:00;8.55;;;2.22;;
37495;SDS011;23346;52.088;4.746;2022-07-18T11:01:26;10.70;;;2.55;;
37495;SDS011;23346;52.088;4.746;2022-07-18T11:06:55;7.85;;;2.22;;
37495;SDS011;23346;52.088;4.746;2022-07-18T11:09:38;5.82;;;2.00;;
37495;SDS011;23346;52.088;4.746;2022-07-18T11:22:49;8.43;;;1.60;;
37495;SDS011;23346;52.088;4.746;2022-07-18T11:25:16;9.10;;;2.10;;
37495;SDS011;23346;52.088;4.746;2022-07-18T11:27:43;6.88;;;2.10;;
37495;SDS011;23346;52.088;4.746;2022-07-18T11:30:09;8.93;;;2.15;;
37495;SDS011;23346;52.088;4.746;2022-07-18T11:32:35;4.40;;;1.80;;
37495;SDS011;23346;52.088;4.746;2022-07-18T11:35:02;4.95;;;2.10;;
37495;SDS011;23346;52.088;4.746;2022-07-18T11:37:32;7.93;;;2.10;;
37495;SDS011;23346;52.088;4.746;2022-07-18T11:40:07;8.43;;;2.70;;
37495;SDS011;23346;52.088;4.746;2022-07-18T11:42:34;3.38;;;1.90;;
37495;SDS011;23346;52.088;4.746;2022-07-18T11:45:00;6.97;;;2.10;;
37495;SDS011;23346;52.088;4.746;2022-07-18T11:47:26;7.60;;;1.92;;
37495;SDS011;23346;52.088;4.746;2022-07-18T11:49:55;5.93;;;2.08;;
37495;SDS011;23346;52.088;4.746;2022-07-18T11:52:21;6.05;;;2.15;;
37495;SDS011;23346;52.088;4.746;2022-07-18T11:54:47;6.47;;;1.95;;
37495;SDS011;23346;52.088;4.746;2022-07-18T11:57:13;9.45;;;2.30;;
37495;SDS011;23346;52.088;4.746;2022-07-18T11:59:51;7.53;;;2.40;;
37495;SDS011;23346;52.088;4.746;2022-07-18T12:02:17;5.82;;;2.00;;
37495;SDS011;23346;52.088;4.746;2022-07-18T12:04:44;6.28;;;2.42;;
37495;SDS011;23346;52.088;4.746;2022-07-18T12:09:39;4.63;;;2.05;;
37495;SDS011;23346;52.088;4.746;2022-07-18T12:12:08;5.32;;;2.20;;
37495;SDS011;23346;52.088;4.746;2022-07-18T12:14:35;8.02;;;2.20;;
37495;SDS011;23346;52.088;4.746;2022-07-18T12:17:02;3.22;;;1.80;;
37495;SDS011;23346;52.088;4.746;2022-07-18T12:19:36;2.92;;;1.70;;
37495;SDS011;23346;52.088;4.746;2022-07-18T12:30:06;3.58;;;1.92;;
37495;SDS011;23346;52.088;4.746;2022-07-18T12:32:38;4.38;;;1.50;;
37495;SDS011;23346;52.088;4.746;2022-07-18T12:35:05;3.53;;;1.40;;
37495;SDS011;23346;52.088;4.746;2022-07-18T12:37:32;3.63;;;1.50;;
37495;SDS011;23346;52.088;4.746;2022-07-18T12:39:59;3.80;;;1.98;;
37495;SDS011;23346;52.088;4.746;2022-07-18T12:42:33;6.07;;;1.80;;
37495;SDS011;23346;52.088;4.746;2022-07-18T12:44:59;3.67;;;2.10;;
37495;SDS011;23346;52.088;4.746;2022-07-18T12:47:25;6.55;;;1.75;;
37495;SDS011;23346;52.088;4.746;2022-07-18T12:49:52;5.55;;;1.83;;
37495;SDS011;23346;52.088;4.746;2022-07-18T12:52:18;3.53;;;1.75;;
37495;SDS011;23346;52.088;4.746;2022-07-18T12:54:45;5.85;;;1.98;;
37495;SDS011;23346;52.088;4.746;2022-07-18T12:57:11;4.18;;;1.60;;
37495;SDS011;23346;52.088;4.746;2022-07-18T12:59:37;8.35;;;2.30;;
37495;SDS011;23346;52.088;4.746;2022-07-18T13:02:03;7.53;;;1.40;;
37495;SDS011;23346;52.088;4.746;2022-07-18T13:04:29;7.30;;;1.50;;
37495;SDS011;23346;52.088;4.746;2022-07-18T13:06:55;5.95;;;1.52;;
37495;SDS011;23346;52.088;4.746;2022-07-18T13:09:21;6.47;;;1.67;;
37495;SDS011;23346;52.088;4.746;2022-07-18T13:11:47;4.65;;;1.63;;
37495;SDS011;23346;52.088;4.746;2022-07-18T13:14:14;11.10;;;1.90;;
37495;SDS011;23346;52.088;4.746;2022-07-18T13:16:41;3.65;;;1.80;;
37495;SDS011;23346;52.088;4.746;2022-07-18T13:19:10;4.07;;;1.52;;
37495;SDS011;23346;52.088;4.746;2022-07-18T13:21:36;4.43;;;1.48;;
37495;SDS011;23346;52.088;4.746;2022-07-18T13:24:02;4.68;;;2.15;;
37495;SDS011;23346;52.088;4.746;2022-07-18T13:26:28;5.68;;;1.42;;
37495;SDS011;23346;52.088;4.746;2022-07-18T13:28:54;5.32;;;1.67;;
37495;SDS011;23346;52.088;4.746;2022-07-18T13:31:20;4.68;;;1.90;;
37495;SDS011;23346;52.088;4.746;2022-07-18T13:33:46;3.30;;;1.60;;
37495;SDS011;23346;52.088;4.746;2022-07-18T13:36:13;3.95;;;1.33;;
37495;SDS011;23346;52.088;4.746;2022-07-18T13:38:39;3.80;;;1.45;;
37495;SDS011;23346;52.088;4.746;2022-07-18T13:41:05;3.63;;;1.60;;
37495;SDS011;23346;52.088;4.746;2022-07-18T13:43:31;6.45;;;1.58;;
37495;SDS011;23346;52.088;4.746;2022-07-18T13:45:57;4.35;;;1.40;;
37495;SDS011;23346;52.088;4.746;2022-07-18T13:48:23;4.53;;;1.38;;
37495;SDS011;23346;52.088;4.746;2022-07-18T13:50:49;8.95;;;1.50;;
37495;SDS011;23346;52.088;4.746;2022-07-18T13:53:15;3.42;;;1.33;;
37495;SDS011;23346;52.088;4.746;2022-07-18T13:55:41;4.70;;;1.83;;
37495;SDS011;23346;52.088;4.746;2022-07-18T13:58:07;3.15;;;1.40;;
37495;SDS011;23346;52.088;4.746;2022-07-18T14:00:34;2.20;;;1.30;;
37495;SDS011;23346;52.088;4.746;2022-07-18T14:03:00;3.05;;;1.45;;
37495;SDS011;23346;52.088;4.746;2022-07-18T14:05:26;3.15;;;1.50;;
37495;SDS011;23346;52.088;4.746;2022-07-18T14:07:52;4.75;;;1.30;;
37495;SDS011;23346;52.088;4.746;2022-07-18T14:10:18;2.50;;;1.60;;
37495;SDS011;23346;52.088;4.746;2022-07-18T14:12:44;4.32;;;2.10;;
37495;SDS011;23346;52.088;4.746;2022-07-18T14:15:10;2.60;;;1.38;;
37495;SDS011;23346;52.088;4.746;2022-07-18T14:17:37;4.00;;;1.48;;
37495;SDS011;23346;52.088;4.746;2022-07-18T14:20:03;3.20;;;1.20;;
37495;SDS011;23346;52.088;4.746;2022-07-18T14:22:31;3.40;;;1.13;;
37495;SDS011;23346;52.088;4.746;2022-07-18T14:24:57;2.17;;;1.38;;
37495;SDS011;23346;52.088;4.746;2022-07-18T14:27:23;4.43;;;1.50;;
37495;SDS011;23346;52.088;4.746;2022-07-18T14:29:49;4.15;;;1.52;;
37495;SDS011;23346;52.088;4.746;2022-07-18T14:32:15;3.97;;;1.55;;
37495;SDS011;23346;52.088;4.746;2022-07-18T14:34:41;3.30;;;1.58;;
37495;SDS011;23346;52.088;4.746;2022-07-18T14:37:07;2.38;;;1.52;;
37495;SDS011;23346;52.088;4.746;2022-07-18T14:39:33;3.92;;;1.58;;
37495;SDS011;23346;52.088;4.746;2022-07-18T14:41:59;2.88;;;1.33;;
37495;SDS011;23346;52.088;4.746;2022-07-18T14:44:25;8.77;;;2.00;;
37495;SDS011;23346;52.088;4.746;2022-07-18T14:46:52;4.20;;;1.35;;
37495;SDS011;23346;52.088;4.746;2022-07-18T14:49:18;4.05;;;1.50;;
37495;SDS011;23346;52.088;4.746;2022-07-18T14:51:44;2.42;;;1.60;;
37495;SDS011;23346;52.088;4.746;2022-07-18T14:54:10;3.30;;;1.50;;
37495;SDS011;23346;52.088;4.746;2022-07-18T14:56:37;2.58;;;1.42;;
37495;SDS011;23346;52.088;4.746;2022-07-18T14:59:03;3.67;;;1.50;;
37495;SDS011;23346;52.088;4.746;2022-07-18T15:01:29;2.55;;;1.40;;
37495;SDS011;23346;52.088;4.746;2022-07-18T15:03:57;3.97;;;1.70;;
37495;SDS011;23346;52.088;4.746;2022-07-18T15:06:23;4.55;;;1.70;;
37495;SDS011;23346;52.088;4.746;2022-07-18T15:08:49;3.75;;;1.67;;
37495;SDS011;23346;52.088;4.746;2022-07-18T15:11:15;4.25;;;1.90;;